Time;durP1;ratioP1;P1;durP2;ratioP2;P2;SDS_P1;SDS_P2;PMS_P1;PMS_P2;Temp;Humidity;BMP_temperature;BMP_pressure;BME280_temperature;BME280_humidity;BME280_pressure;Samples;Min_cycle;Max_cycle;Signal;HPM_P1;HPM_P2
2022/06/25 00:01:49;;;;;;;3.38;1.85;;;;;;;25.86;43.39;100564.97;5026036;28;20045;-73
2022/06/25 00:07:02;;;;;;;3.55;1.80;;;;;;;25.79;43.25;100570.50;5042490;28;20041;-72
2022/06/25 00:09:28;;;;;;;3.25;1.80;;;;;;;25.77;43.64;100567.94;5040450;28;20115;-73
2022/06/25 00:14:40;;;;;;;3.85;1.80;;;;;;;25.74;43.71;100568.34;5045602;28;20268;-73
2022/06/25 00:17:06;;;;;;;3.45;1.67;;;;;;;25.74;43.48;100568.34;5045905;28;20497;-72
2022/06/25 00:19:33;;;;;;;2.78;1.60;;;;;;;25.74;43.19;100568.34;5024865;28;20098;-72
2022/06/25 00:22:00;;;;;;;2.33;1.30;;;;;;;25.74;43.98;100571.13;5040771;28;20082;-73
2022/06/25 00:24:26;;;;;;;3.72;1.67;;;;;;;25.74;43.26;100567.50;5044533;28;20073;-73
2022/06/25 00:26:53;;;;;;;1.95;1.52;;;;;;;25.72;43.43;100572.41;5047692;28;20087;-72
2022/06/25 00:29:19;;;;;;;2.65;1.42;;;;;;;25.71;43.59;100579.03;5036258;28;20133;-72
2022/06/25 00:31:46;;;;;;;3.10;1.85;;;;;;;25.70;43.64;100580.09;5036324;28;20048;-73
2022/06/25 00:34:13;;;;;;;3.47;1.58;;;;;;;25.69;43.38;100586.75;5027743;28;20593;-72
2022/06/25 00:36:39;;;;;;;2.33;1.50;;;;;;;25.68;43.41;100583.09;5043403;28;20091;-72
2022/06/25 00:39:06;;;;;;;3.13;1.60;;;;;;;25.66;43.23;100584.38;5022656;28;20079;-72
2022/06/25 00:41:33;;;;;;;3.60;1.55;;;;;;;25.65;43.37;100593.75;5040078;28;20133;-73
2022/06/25 00:44:06;;;;;;;2.88;1.58;;;;;;;25.67;43.35;100600.84;5041965;28;20135;-73
2022/06/25 00:46:32;;;;;;;3.85;1.58;;;;;;;25.60;43.15;100591.63;5025164;28;20045;-72
2022/06/25 00:48:59;;;;;;;4.57;2.00;;;;;;;25.59;43.33;100603.81;5041664;28;20050;-72
2022/06/25 00:51:27;;;;;;;2.90;1.73;;;;;;;25.61;43.52;100603.59;5038250;28;20133;-73
2022/06/25 00:53:58;;;;;;;2.70;1.73;;;;;;;25.59;43.17;100600.16;5032235;28;20124;-72
2022/06/25 00:56:27;;;;;;;3.72;1.92;;;;;;;25.56;43.86;100595.81;5031025;28;20278;-72
2022/06/25 00:58:58;;;;;;;3.10;1.70;;;;;;;25.54;43.64;100605.44;5049512;28;20053;-73
2022/06/25 01:01:26;;;;;;;2.75;1.67;;;;;;;25.50;43.45;100607.78;5050078;28;20045;-72
2022/06/25 01:03:52;;;;;;;3.08;1.90;;;;;;;25.47;43.71;100608.19;5043669;28;20063;-72
2022/06/25 01:06:19;;;;;;;2.70;1.75;;;;;;;25.46;44.08;100616.72;5050611;28;20435;-72
2022/06/25 01:08:46;;;;;;;2.63;1.67;;;;;;;25.44;44.01;100616.09;5030570;28;20128;-72
2022/06/25 01:11:12;;;;;;;3.38;2.10;;;;;;;25.43;44.11;100612.44;5050881;28;20079;-73
2022/06/25 01:13:39;;;;;;;3.08;2.00;;;;;;;25.42;44.18;100613.50;5048383;28;20127;-73
2022/06/25 01:16:05;;;;;;;4.13;2.20;;;;;;;25.42;43.94;100627.41;5045069;28;20478;-72
2022/06/25 01:18:32;;;;;;;3.58;1.90;;;;;;;25.40;44.16;100616.50;5030976;28;20489;-73
2022/06/25 01:21:01;;;;;;;3.13;1.65;;;;;;;25.43;44.43;100623.56;5044010;28;20041;-73
2022/06/25 01:23:30;;;;;;;6.72;2.53;;;;;;;25.42;44.30;100627.41;5049752;28;20135;-72
2022/06/25 01:25:57;;;;;;;3.25;2.05;;;;;;;25.39;44.28;100627.81;5049617;28;20132;-72
2022/06/25 01:28:24;;;;;;;4.13;2.10;;;;;;;25.35;44.11;100632.94;5045880;28;20045;-73
2022/06/25 01:30:50;;;;;;;2.78;1.80;;;;;;;25.35;44.03;100632.06;5048772;28;20152;-73
2022/06/25 01:33:17;;;;;;;4.55;1.90;;;;;;;25.33;44.25;100639.75;5024963;28;20133;-73
2022/06/25 01:35:43;;;;;;;3.15;1.90;;;;;;;25.30;44.32;100637.38;5030103;28;20040;-72
2022/06/25 01:38:10;;;;;;;4.65;2.40;;;;;;;25.28;44.09;100640.34;5050023;28;20531;-73
2022/06/25 01:40:37;;;;;;;5.07;2.25;;;;;;;25.25;44.16;100639.91;5046873;28;20088;-72
2022/06/25 01:43:04;;;;;;;3.63;2.30;;;;;;;25.22;44.45;100645.84;5045925;28;20124;-73
2022/06/25 01:45:34;;;;;;;3.58;2.00;;;;;;;25.22;44.42;100645.84;5043325;28;20093;-72
2022/06/25 01:48:02;;;;;;;2.90;1.98;;;;;;;25.18;44.00;100639.00;5024870;28;20052;-72
2022/06/25 01:50:30;;;;;;;3.60;2.30;;;;;;;25.15;44.41;100648.59;5031881;28;20049;-72
2022/06/25 01:52:57;;;;;;;3.22;2.05;;;;;;;25.12;44.48;100648.97;5049106;28;20060;-72
2022/06/25 01:55:24;;;;;;;4.15;2.30;;;;;;;25.11;44.42;100652.84;5049912;28;20068;-72
2022/06/25 01:57:51;;;;;;;3.28;2.22;;;;;;;25.10;44.24;100650.28;5048434;28;20581;-72
2022/06/25 02:00:23;;;;;;;4.13;2.05;;;;;;;25.10;45.21;100650.28;5044070;28;20132;-72
2022/06/25 02:02:51;;;;;;;3.28;2.13;;;;;;;25.06;44.89;100652.59;5046781;28;20421;-72
2022/06/25 02:05:56;;;;;;;3.75;2.10;;;;;;;25.05;44.82;100658.34;5048483;28;20048;-71
2022/06/25 02:08:12;;;;;;;3.92;2.10;;;;;;;25.04;44.97;100659.41;5046366;28;20536;-71
2022/06/25 02:10:40;;;;;;;4.70;2.30;;;;;;;25.02;44.82;100666.03;5049093;28;20152;-71
2022/06/25 02:13:06;;;;;;;4.63;2.25;;;;;;;25.02;45.06;100670.72;5048298;28;20523;-72
2022/06/25 02:15:33;;;;;;;3.58;2.45;;;;;;;25.03;45.03;100664.13;5048632;28;20469;-72
2022/06/25 02:18:00;;;;;;;5.88;2.40;;;;;;;25.02;44.91;100667.94;5030083;28;20079;-72
2022/06/25 02:20:27;;;;;;;3.85;2.10;;;;;;;25.01;44.92;100671.78;5025438;28;20126;-72
2022/06/25 02:22:53;;;;;;;4.07;2.35;;;;;;;25.00;45.06;100661.72;5023196;28;20133;-72
2022/06/25 02:25:20;;;;;;;4.85;2.42;;;;;;;25.00;45.11;100667.28;5034623;28;20047;-71
2022/06/25 02:27:46;;;;;;;3.97;2.25;;;;;;;24.99;45.54;100671.97;5044739;28;20051;-72
2022/06/25 02:30:13;;;;;;;5.18;2.50;;;;;;;24.99;45.44;100671.97;5041189;28;20148;-72
2022/06/25 02:32:39;;;;;;;3.95;2.20;;;;;;;24.98;45.09;100678.59;5045735;28;20132;-71
2022/06/25 02:35:06;;;;;;;3.83;2.38;;;;;;;24.99;45.32;100676.66;5029799;28;20579;-71
2022/06/25 02:37:33;;;;;;;3.15;2.30;;;;;;;24.97;45.32;100681.56;5047080;28;20446;-72
2022/06/25 02:40:00;;;;;;;3.50;2.50;;;;;;;24.97;45.21;100687.13;5048506;28;20044;-71
2022/06/25 02:42:34;;;;;;;4.38;2.40;;;;;;;25.00;45.71;100695.94;5047378;28;20132;-71
2022/06/25 02:45:02;;;;;;;4.38;2.72;;;;;;;24.95;45.21;100690.09;5043041;28;20056;-71
2022/06/25 02:47:29;;;;;;;4.35;2.50;;;;;;;24.94;45.04;100688.41;5029620;28;20083;-72
2022/06/25 02:49:56;;;;;;;4.15;2.28;;;;;;;24.92;45.14;100698.84;5048638;28;20045;-72
2022/06/25 02:52:22;;;;;;;5.47;2.60;;;;;;;24.90;45.52;100692.59;5029522;28;20045;-72
2022/06/25 02:54:49;;;;;;;3.95;2.47;;;;;;;24.89;45.16;100695.56;5048206;28;20124;-72
2022/06/25 03:00:03;;;;;;;4.00;2.47;;;;;;;24.83;45.38;100696.34;5039442;28;20087;-72
2022/06/25 03:02:29;;;;;;;4.30;2.50;;;;;;;24.82;45.33;100697.41;5034053;28;20057;-71
2022/06/25 03:04:56;;;;;;;4.25;2.28;;;;;;;24.80;45.72;100700.38;5048281;28;20132;-72
2022/06/25 03:07:22;;;;;;;5.57;2.83;;;;;;;24.80;45.21;100699.53;5045220;28;20083;-72
2022/06/25 03:09:49;;;;;;;4.15;2.25;;;;;;;24.79;45.30;100707.00;5045606;28;20131;-72
2022/06/25 03:12:16;;;;;;;3.92;2.35;;;;;;;24.79;45.52;100707.00;5036833;28;20092;-72
2022/06/25 03:14:42;;;;;;;3.97;2.55;;;;;;;24.77;45.23;100702.72;5040758;28;20124;-72
2022/06/25 03:17:09;;;;;;;4.10;2.13;;;;;;;24.76;45.26;100695.44;5066432;23;20087;-85
2022/06/25 03:19:36;;;;;;;5.43;2.60;;;;;;;24.75;45.11;100699.28;5024740;28;20087;-86
2022/06/25 03:22:03;;;;;;;4.85;2.50;;;;;;;24.74;44.84;100711.44;5035828;28;20045;-87
2022/06/25 03:24:29;;;;;;;2.95;2.13;;;;;;;24.70;44.83;100702.66;5035390;28;20128;-86
2022/06/25 03:26:56;;;;;;;3.50;2.47;;;;;;;24.70;45.16;100707.34;5036743;28;20076;-87
2022/06/25 03:29:25;;;;;;;3.20;2.25;;;;;;;24.64;45.01;100703.44;5051028;28;20048;-86
2022/06/25 03:31:51;;;;;;;4.25;2.35;;;;;;;24.63;44.89;100712.81;5053978;28;20076;-85
2022/06/25 03:34:18;;;;;;;4.25;2.40;;;;;;;24.60;44.73;100713.22;5057313;28;20048;-85
2022/06/25 03:36:45;;;;;;;3.28;2.20;;;;;;;24.58;44.96;100720.88;5066575;28;20057;-87
2022/06/25 03:39:12;;;;;;;4.30;2.13;;;;;;;24.56;45.06;100725.75;5049339;28;20131;-86
2022/06/25 03:41:38;;;;;;;3.80;2.25;;;;;;;24.52;45.47;100718.91;5050855;28;20049;-85
2022/06/25 03:44:07;;;;;;;2.95;2.00;;;;;;;24.51;45.54;100728.28;5067511;28;20097;-85
2022/06/25 04:24:26;;;;;;;3.47;2.15;;;;;;;24.24;45.99;100744.59;5063745;28;20521;-85
2022/06/25 04:26:53;;;;;;;3.08;1.77;;;;;;;24.27;46.00;100747.00;5047197;28;20040;-86
2022/06/25 04:29:19;;;;;;;3.05;2.08;;;;;;;24.31;45.93;100749.38;5051096;28;20479;-86
2022/06/25 04:31:46;;;;;;;2.90;2.08;;;;;;;24.29;45.88;100735.72;5051352;28;20049;-85
2022/06/25 04:34:12;;;;;;;6.15;2.40;;;;;;;24.32;46.17;100740.00;5048453;28;20136;-85
2022/06/25 04:36:39;;;;;;;3.50;2.20;;;;;;;24.31;46.04;100746.59;5051253;28;20083;-85
2022/06/25 04:39:06;;;;;;;3.22;2.22;;;;;;;24.34;45.84;100752.63;5052323;28;20060;-85
2022/06/25 04:41:33;;;;;;;4.00;2.05;;;;;;;24.32;46.09;100749.19;5057135;28;20049;-86
2022/06/25 04:44:01;;;;;;;2.83;1.90;;;;;;;24.33;46.38;100747.25;5062653;28;20457;-85
2022/06/25 04:46:31;;;;;;;3.03;1.88;;;;;;;24.36;46.08;100750.53;5059135;28;20071;-85
2022/06/25 04:48:58;;;;;;;3.50;2.00;;;;;;;24.36;46.24;100750.53;5052676;28;20048;-85
2022/06/25 04:51:26;;;;;;;2.90;2.00;;;;;;;24.38;46.16;100751.16;5050376;28;20131;-85
2022/06/25 04:53:55;;;;;;;3.78;2.10;;;;;;;24.38;46.48;100742.84;5053691;28;20052;-86
2022/06/25 04:56:28;;;;;;;3.08;1.85;;;;;;;24.43;46.37;100743.13;5059765;28;20047;-85
2022/06/25 04:58:56;;;;;;;3.80;2.00;;;;;;;24.39;46.21;100740.94;5047220;28;20052;-86
2022/06/25 05:01:22;;;;;;;3.10;1.98;;;;;;;24.42;46.38;100738.63;5054921;28;20052;-86
2022/06/25 05:03:49;;;;;;;5.10;2.00;;;;;;;24.45;46.68;100742.94;5051146;28;20051;-86
2022/06/25 05:06:16;;;;;;;3.92;1.98;;;;;;;24.48;46.38;100739.75;5054699;28;20098;-86
2022/06/25 05:08:43;;;;;;;5.97;2.15;;;;;;;24.51;46.73;100744.94;5047367;28;20083;-87
2022/06/25 05:11:09;;;;;;;3.53;2.20;;;;;;;24.56;46.64;100748.81;5051517;28;20044;-87
2022/06/25 05:13:36;;;;;;;4.65;1.95;;;;;;;24.63;46.72;100758.09;5053588;28;20506;-87
2022/06/25 05:16:03;;;;;;;4.00;2.00;;;;;;;24.73;47.10;100762.47;5043754;28;20041;-86
2022/06/25 05:18:30;;;;;;;3.60;2.17;;;;;;;24.80;47.13;100760.63;5053024;28;20056;-85
2022/06/25 05:20:59;;;;;;;3.72;1.92;;;;;;;24.91;47.09;100762.91;5061316;28;20049;-85
2022/06/25 05:23:26;;;;;;;4.32;2.20;;;;;;;25.02;47.40;100763.25;5043349;28;20559;-86
2022/06/25 05:25:53;;;;;;;4.13;2.20;;;;;;;25.13;47.06;100767.41;5046345;28;20510;-85
2022/06/25 05:28:19;;;;;;;3.78;2.42;;;;;;;25.25;46.94;100765.81;5052733;28;20048;-85
2022/06/25 05:30:46;;;;;;;4.43;2.35;;;;;;;25.40;46.81;100772.16;5055462;28;20094;-86
2022/06/25 05:33:13;;;;;;;3.55;2.20;;;;;;;25.53;46.66;100776.13;5070551;28;20146;-85
2022/06/25 05:35:40;;;;;;;3.85;2.00;;;;;;;25.67;46.27;100773.25;5051762;28;20494;-86
2022/06/25 05:38:07;;;;;;;3.50;2.20;;;;;;;25.82;46.04;100783.41;5052664;28;20107;-86
2022/06/25 05:40:35;;;;;;;4.63;2.40;;;;;;;25.93;45.52;100783.72;5048599;28;20098;-86
2022/06/25 05:43:02;;;;;;;5.57;2.50;;;;;;;26.05;45.32;100786.75;5063508;28;20040;-86
2022/06/25 05:45:29;;;;;;;4.18;2.33;;;;;;;26.17;45.02;100784.28;5047128;28;20086;-86
2022/06/25 05:47:56;;;;;;;3.15;2.03;;;;;;;26.28;44.94;100776.22;5064452;28;20044;-85
2022/06/25 05:50:23;;;;;;;3.97;2.10;;;;;;;26.39;44.71;100783.13;5051150;28;20040;-85
2022/06/25 05:52:50;;;;;;;3.50;2.15;;;;;;;26.48;44.29;100782.75;5050230;28;20052;-86
2022/06/25 05:55:17;;;;;;;4.28;2.10;;;;;;;26.58;44.48;100787.06;5045357;28;20041;-85
2022/06/25 05:57:43;;;;;;;3.60;1.80;;;;;;;26.68;44.01;100793.97;5052113;28;20041;-84
2022/06/25 06:00:10;;;;;;;2.75;1.85;;;;;;;26.77;43.89;100795.47;5047497;28;20486;-86
2022/06/25 06:02:37;;;;;;;3.88;1.80;;;;;;;26.85;43.68;100797.19;5046971;28;20545;-85
2022/06/25 06:05:04;;;;;;;4.47;2.03;;;;;;;26.96;43.40;100805.00;5047111;28;20053;-85
2022/06/25 06:07:31;;;;;;;4.60;2.00;;;;;;;27.05;43.45;100805.66;5055271;28;20052;-86
2022/06/25 06:09:58;;;;;;;5.40;1.95;;;;;;;27.15;42.97;100806.13;5052918;28;20048;-86
2022/06/25 06:12:24;;;;;;;3.55;1.80;;;;;;;27.23;43.14;100809.56;5048224;28;20140;-87
2022/06/25 06:15:13;;;;;;;3.30;1.63;;;;;;;27.36;42.17;100810.63;5046456;28;20245;-87
2022/06/25 06:44:22;;;;;;;2.92;1.50;;;;;;;28.04;40.99;100814.94;5056699;28;20102;-86
2022/06/25 06:46:49;;;;;;;3.88;1.90;;;;;;;28.15;40.68;100819.00;5032590;28;20068;-86
2022/06/25 06:49:16;;;;;;;2.92;1.48;;;;;;;28.24;40.10;100817.72;5027185;28;20097;-86
2022/06/25 06:51:42;;;;;;;3.92;1.63;;;;;;;28.31;39.69;100822.22;5040459;28;20076;-79
2022/06/25 06:54:09;;;;;;;3.08;1.55;;;;;;;28.41;39.36;100821.75;5046659;28;20056;-80
2022/06/25 06:56:35;;;;;;;3.63;1.50;;;;;;;28.45;39.00;100808.19;5043009;28;20067;-80
2022/06/25 06:59:03;;;;;;;2.67;1.30;;;;;;;28.51;39.14;100819.34;5047005;28;20132;-79
2022/06/25 07:01:29;;;;;;;2.30;1.45;;;;;;;28.59;38.60;100821.88;5047713;28;20053;-80
2022/06/25 07:03:56;;;;;;;4.05;1.60;;;;;;;28.65;38.41;100817.38;5047527;28;20136;-79
2022/06/25 07:06:23;;;;;;;3.13;1.40;;;;;;;28.73;38.24;100829.16;5029532;28;20063;-80
2022/06/25 07:08:49;;;;;;;3.63;1.42;;;;;;;28.79;38.22;100827.44;5061663;28;20053;-80
2022/06/25 07:11:28;;;;;;;2.85;1.70;;;;;;;28.86;38.00;100821.81;5066323;28;20083;-82
2022/06/25 07:14:00;;;;;;;2.97;1.58;;;;;;;28.96;37.07;100823.03;5050616;28;20141;-82
2022/06/25 07:16:28;;;;;;;4.07;1.70;;;;;;;28.98;37.76;100820.03;5051243;28;20064;-82
2022/06/25 07:18:56;;;;;;;3.08;1.40;;;;;;;29.04;37.61;100824.72;5069692;28;20102;-81
2022/06/25 07:25:10;;;;;;;2.08;1.30;;;;;;;29.12;37.64;100832.84;5064119;28;20124;-87
2022/06/25 07:27:38;;;;;;;3.45;1.65;;;;;;;29.22;37.46;100836.00;5042571;28;20041;-87
2022/06/25 07:30:05;;;;;;;2.83;1.48;;;;;;;29.31;37.19;100822.63;5045700;28;20044;-86
2022/06/25 07:32:49;;;;;;;2.28;1.20;;;;;;;29.37;35.38;100822.59;5015999;28;20056;-87
2022/06/25 07:35:38;;;;;;;2.58;1.30;;;;;;;29.41;36.35;100821.03;5042750;28;20049;-86
2022/06/25 07:38:07;;;;;;;3.00;1.20;;;;;;;29.46;36.20;100824.03;5050810;28;20045;-87
2022/06/25 07:40:34;;;;;;;3.10;1.60;;;;;;;29.56;36.10;100817.94;5047532;28;20052;-87
2022/06/25 07:43:02;;;;;;;3.80;1.45;;;;;;;29.61;35.89;100820.03;5044804;28;20052;-87
2022/06/25 07:45:28;;;;;;;4.30;1.60;;;;;;;29.68;36.02;100821.69;5042719;28;20070;-87
2022/06/25 07:47:55;;;;;;;3.25;1.50;;;;;;;29.75;35.80;100816.88;5006505;28;20053;-87
2022/06/25 07:53:24;;;;;;;2.17;1.20;;;;;;;29.87;35.84;100829.06;5075782;28;20056;-86
2022/06/25 07:55:54;;;;;;;4.20;1.55;;;;;;;29.98;35.28;100815.44;5052387;28;20040;-87
2022/06/25 07:58:31;;;;;;;3.25;1.30;;;;;;;30.09;34.41;100818.31;5040046;28;20057;-87
2022/06/25 08:01:03;;;;;;;3.20;1.52;;;;;;;30.14;35.30;100818.47;5036697;28;20463;-87
2022/06/25 08:03:30;;;;;;;3.22;1.35;;;;;;;30.24;34.61;100823.53;5048781;28;20052;-87
2022/06/25 08:05:58;;;;;;;2.83;1.40;;;;;;;30.33;34.43;100826.88;5051706;28;20360;-87
2022/06/25 08:08:25;;;;;;;3.25;1.40;;;;;;;30.39;34.54;100817.56;5049607;28;20064;-86
2022/06/25 08:10:54;;;;;;;2.85;1.40;;;;;;;30.46;34.42;100822.00;5063707;28;20052;-86
2022/06/25 08:13:25;;;;;;;2.95;1.52;;;;;;;30.54;33.79;100818.94;5044293;28;20144;-87
2022/06/25 08:15:52;;;;;;;3.72;1.60;;;;;;;30.61;33.56;100810.44;5052218;28;20071;-87
2022/06/25 08:18:24;;;;;;;4.10;1.58;;;;;;;30.72;33.44;100815.22;5051096;28;20040;-87
2022/06/25 08:20:54;;;;;;;;;;;;;;;30.43;34.55;100822.47;5055229;28;20102;-89
2022/06/25 08:23:21;;;;;;;2.65;1.20;;;;;;;30.74;33.84;100813.06;5044710;28;19924;-86
2022/06/25 08:25:50;;;;;;;1.92;1.20;;;;;;;30.84;33.15;100806.88;5051091;28;20044;-87
2022/06/25 08:28:18;;;;;;;2.88;1.27;;;;;;;30.89;32.73;100816.28;5047203;28;20079;-87
2022/06/25 08:30:46;;;;;;;2.25;1.15;;;;;;;30.94;32.78;100807.19;5049569;28;20059;-88
2022/06/25 08:33:14;;;;;;;2.63;1.30;;;;;;;30.98;32.60;100808.41;5064745;28;20048;-87
2022/06/25 08:35:44;;;;;;;3.35;1.75;;;;;;;31.05;31.77;100816.75;5066064;28;20055;-87
2022/06/25 08:38:16;;;;;;;1.98;1.13;;;;;;;31.07;31.72;100818.22;5027758;28;20052;-88
2022/06/25 08:40:50;;;;;;;2.83;1.20;;;;;;;31.12;31.88;100818.41;5064219;28;20388;-87
2022/06/25 08:43:21;;;;;;;1.67;1.10;;;;;;;31.14;31.93;100820.94;5038531;28;20057;-88
2022/06/25 08:45:48;;;;;;;3.08;1.45;;;;;;;31.15;31.68;100828.25;5061993;28;20116;-87
2022/06/25 08:48:30;;;;;;;2.63;1.40;;;;;;;31.18;30.81;100827.78;5064942;28;20040;-87
2022/06/25 08:50:58;;;;;;;;;;;;;;;30.85;32.40;100822.63;5043100;28;20530;-86
2022/06/25 08:53:31;;;;;;;4.95;1.40;;;;;;;31.09;30.92;100818.88;5067091;28;19947;-87
2022/06/25 08:56:00;;;;;;;2.50;1.30;;;;;;;31.06;30.73;100812.81;5049610;28;20054;-86
2022/06/25 08:58:28;;;;;;;2.80;1.27;;;;;;;31.02;30.74;100816.13;5045618;28;20044;-86
2022/06/25 09:00:55;;;;;;;3.22;1.38;;;;;;;30.98;30.83;100819.63;5051558;28;20052;-87
2022/06/25 09:03:25;;;;;;;2.83;1.30;;;;;;;30.93;30.50;100813.88;5052916;28;20044;-88
2022/06/25 09:06:10;;;;;;;2.50;1.30;;;;;;;30.84;31.09;100816.16;5058946;28;20080;-87
2022/06/25 09:08:41;;;;;;;2.72;1.23;;;;;;;30.77;30.75;100811.72;5062633;28;20051;-89
2022/06/25 09:11:09;;;;;;;2.70;1.10;;;;;;;30.71;31.10;100807.94;5075540;28;20043;-89
2022/06/25 09:13:35;;;;;;;3.05;1.13;;;;;;;30.67;30.90;100809.47;5033355;28;20053;-88
2022/06/25 09:16:03;;;;;;;2.30;1.17;;;;;;;30.61;30.99;100813.25;5049940;28;20080;-87
2022/06/25 09:18:36;;;;;;;3.30;1.25;;;;;;;30.60;30.37;100805.91;5053469;28;20290;-86
2022/06/25 09:21:09;;;;;;;3.83;1.25;;;;;;;30.51;30.61;100804.50;5070254;28;20102;-86
2022/06/25 09:24:28;;;;;;;2.05;1.10;;;;;;;30.49;30.64;100810.31;5056496;28;20079;-86
2022/06/25 09:26:55;;;;;;;3.97;1.30;;;;;;;30.42;30.98;100808.69;5023353;23;20049;-75
2022/06/25 09:29:36;;;;;;;2.33;0.95;;;;;;;30.43;30.27;100810.41;5031436;28;20051;-75
2022/06/25 09:32:02;;;;;;;2.45;1.23;;;;;;;30.37;30.73;100809.41;5048544;28;20164;-74
2022/06/25 09:34:34;;;;;;;2.78;1.30;;;;;;;30.36;30.42;100810.50;5049957;28;20166;-75
2022/06/25 09:37:16;;;;;;;3.10;1.20;;;;;;;30.31;30.53;100807.50;5059497;28;20412;-75
2022/06/25 09:39:45;;;;;;;2.30;1.08;;;;;;;30.26;30.97;100807.38;5045421;28;20129;-76
2022/06/25 09:42:27;;;;;;;4.00;1.00;;;;;;;30.30;30.39;100810.56;5049083;28;20132;-75
2022/06/25 09:45:06;;;;;;;3.83;1.23;;;;;;;30.25;30.29;100797.25;5036572;28;20476;-75
2022/06/25 09:47:38;;;;;;;1.88;1.02;;;;;;;30.25;30.25;100794.44;5048339;28;20049;-75
2022/06/25 09:50:17;;;;;;;2.75;1.40;;;;;;;30.23;30.20;100800.28;5044016;28;20045;-76
2022/06/25 09:52:59;;;;;;;2.88;1.40;;;;;;;30.22;30.22;100793.00;5029597;28;20179;-75
2022/06/25 09:55:27;;;;;;;;;;;;;;;29.92;31.68;100799.50;5033529;28;20081;-75
2022/06/25 09:57:54;;;;;;;2.08;0.90;;;;;;;30.18;30.92;100797.31;5048198;28;20031;-75
2022/06/25 10:00:22;;;;;;;2.55;0.90;;;;;;;30.25;30.37;100800.91;5049315;28;20145;-75
2022/06/25 10:02:50;;;;;;;1.67;0.90;;;;;;;30.29;30.14;100806.06;5030187;28;20089;-75
2022/06/25 10:05:21;;;;;;;1.98;1.00;;;;;;;30.32;29.92;100802.75;5031483;28;20135;-75
2022/06/25 10:08:07;;;;;;;3.45;1.27;;;;;;;30.35;29.89;100802.31;5047138;28;20787;-75
2022/06/25 10:10:41;;;;;;;2.72;1.10;;;;;;;30.38;29.32;100796.25;5023998;28;20063;-75
2022/06/25 10:13:08;;;;;;;1.20;0.95;;;;;;;30.38;29.76;100799.91;5047263;28;20045;-75
2022/06/25 10:15:35;;;;;;;3.22;1.20;;;;;;;30.40;29.80;100797.72;5030421;28;20085;-76
2022/06/25 10:18:03;;;;;;;4.78;1.20;;;;;;;30.44;29.63;100795.31;5047079;28;20041;-76
2022/06/25 10:20:31;;;;;;;2.78;1.20;;;;;;;30.45;29.73;100794.22;5031547;28;20148;-75
2022/06/25 10:23:01;;;;;;;3.05;1.27;;;;;;;30.49;29.71;100789.84;5040608;23;20501;-74
2022/06/25 10:25:39;;;;;;;2.40;1.05;;;;;;;30.50;29.78;100795.22;4993581;28;20045;-76
2022/06/25 10:28:25;;;;;;;1.80;1.10;;;;;;;30.55;28.95;100783.34;4966521;28;20069;-74
2022/06/25 10:31:16;;;;;;;2.85;1.17;;;;;;;30.55;29.47;100784.22;4995361;28;20076;-74
2022/06/25 10:33:57;;;;;;;2.60;1.00;;;;;;;30.61;28.92;100780.47;4988447;28;20456;-74
2022/06/25 10:36:47;;;;;;;2.70;1.25;;;;;;;30.65;28.41;100778.03;5018778;28;20048;-73
2022/06/25 10:39:27;;;;;;;1.92;1.15;;;;;;;30.62;28.45;100773.78;4981402;28;20472;-74
2022/06/25 10:45:06;;;;;;;2.13;1.10;;;;;;;30.66;28.05;100781.69;5029465;28;20347;-73
2022/06/25 10:47:51;;;;;;;3.15;1.27;;;;;;;30.65;27.87;100775.22;5028583;28;20041;-73
2022/06/25 10:50:20;;;;;;;1.40;0.90;;;;;;;30.67;28.31;100772.19;5028927;28;20049;-72
2022/06/25 10:53:06;;;;;;;1.65;1.08;;;;;;;30.66;28.24;100776.94;5032387;28;20136;-73
2022/06/25 10:55:56;;;;;;;1.65;1.10;;;;;;;30.66;28.69;100784.50;5033073;28;20045;-74
2022/06/25 10:58:28;;;;;;;3.28;1.30;;;;;;;30.64;28.61;100774.38;5024880;28;20434;-74
2022/06/25 11:01:01;;;;;;;1.85;1.10;;;;;;;30.67;28.30;100772.19;5031708;28;20486;-72
2022/06/25 11:03:28;;;;;;;3.70;1.17;;;;;;;30.64;28.75;100770.69;5015978;28;20055;-74
2022/06/25 11:05:57;;;;;;;3.42;1.15;;;;;;;30.69;28.96;100776.47;5008046;28;20096;-73
2022/06/25 11:08:44;;;;;;;2.17;1.17;;;;;;;30.70;28.55;100772.59;5010788;28;20061;-74
2022/06/25 11:11:11;;;;;;;1.85;1.20;;;;;;;30.73;28.55;100772.09;5022983;28;20046;-73
2022/06/25 11:13:42;;;;;;;1.85;1.08;;;;;;;30.80;28.41;100775.66;5027437;28;20132;-74
2022/06/25 11:16:13;;;;;;;3.45;1.30;;;;;;;30.84;28.08;100765.69;5030420;28;20136;-74
2022/06/25 11:18:47;;;;;;;1.60;0.95;;;;;;;30.86;27.69;100768.25;5034199;28;20537;-74
2022/06/25 11:21:36;;;;;;;1.98;1.05;;;;;;;30.85;27.92;100770.22;5028259;28;20588;-74
2022/06/25 11:24:10;;;;;;;1.60;1.02;;;;;;;30.87;27.50;100765.22;5017310;28;20145;-74
2022/06/25 11:29:30;;;;;;;2.15;1.30;;;;;;;30.86;28.12;100776.69;5029749;28;20270;-73
2022/06/25 11:31:57;;;;;;;3.08;1.45;;;;;;;30.84;28.11;100770.44;5039732;28;20087;-73
2022/06/25 11:34:25;;;;;;;2.10;1.33;;;;;;;30.84;28.15;100776.06;5030904;28;20197;-74
2022/06/25 11:37:00;;;;;;;2.00;1.20;;;;;;;30.85;28.08;100767.41;5037334;28;20058;-74
2022/06/25 11:39:28;;;;;;;2.92;1.27;;;;;;;30.80;27.98;100769.22;5011109;28;20197;-74
2022/06/25 11:41:55;;;;;;;2.78;1.30;;;;;;;30.77;28.48;100766.88;5011688;28;20116;-74
2022/06/25 11:44:25;;;;;;;2.53;1.17;;;;;;;30.77;28.53;100767.75;5027052;28;20390;-74
2022/06/25 11:46:52;;;;;;;2.78;1.20;;;;;;;30.73;27.99;100762.81;5029846;28;20132;-74
2022/06/25 11:49:22;;;;;;;3.30;1.38;;;;;;;30.71;28.27;100767.84;5022523;28;20053;-75
2022/06/25 11:51:52;;;;;;;2.83;1.42;;;;;;;30.72;28.04;100767.56;5027334;28;20176;-74
2022/06/25 11:54:23;;;;;;;1.77;1.30;;;;;;;30.70;28.10;100768.94;5030558;28;20094;-74
2022/06/25 11:56:58;;;;;;;1.80;1.08;;;;;;;30.70;27.67;100771.72;5034470;28;20084;-74
2022/06/25 11:59:27;;;;;;;1.73;1.10;;;;;;;30.68;27.95;100776.72;5030992;28;20510;-74
2022/06/25 12:01:56;;;;;;;2.60;1.25;;;;;;;30.68;27.94;100768.28;5029354;28;20131;-73
2022/06/25 12:04:22;;;;;;;3.05;1.17;;;;;;;30.67;28.14;100775.00;5009438;28;20128;-73
2022/06/25 12:06:49;;;;;;;2.90;1.40;;;;;;;30.67;28.11;100780.59;5034970;28;20080;-73
2022/06/25 12:09:18;;;;;;;2.10;1.20;;;;;;;30.69;27.96;100773.66;5029683;28;20152;-73
2022/06/25 12:11:52;;;;;;;1.85;1.10;;;;;;;30.67;28.19;100772.19;5029059;28;20511;-73
2022/06/25 12:14:24;;;;;;;2.45;1.40;;;;;;;30.68;28.22;100776.72;5031830;28;20087;-73
2022/06/25 12:16:52;;;;;;;1.98;1.13;;;;;;;30.67;28.24;100775.00;5011249;28;20045;-73
2022/06/25 12:19:19;;;;;;;2.03;1.10;;;;;;;30.69;28.07;100767.22;5027331;28;20072;-73
2022/06/25 12:21:46;;;;;;;4.22;1.40;;;;;;;30.72;28.15;100775.16;5028591;28;20050;-75
2022/06/25 12:24:15;;;;;;;2.10;1.10;;;;;;;30.74;27.96;100775.75;5027016;28;20053;-73
2022/06/25 12:26:50;;;;;;;1.33;1.00;;;;;;;30.74;27.67;100775.75;5027459;28;20140;-73
2022/06/25 12:29:24;;;;;;;2.38;1.23;;;;;;;30.76;27.58;100781.97;5027438;28;20045;-72
2022/06/25 12:31:59;;;;;;;2.47;1.20;;;;;;;30.74;28.10;100778.56;5028385;28;20128;-74
2022/06/25 12:34:27;;;;;;;2.55;1.17;;;;;;;30.69;28.13;100782.09;5009257;28;20136;-73
2022/06/25 12:36:55;;;;;;;2.30;1.42;;;;;;;30.70;28.32;100780.13;5028183;28;20088;-73
2022/06/25 12:39:30;;;;;;;2.63;1.40;;;;;;;30.69;28.16;100776.47;5026993;28;20132;-73
2022/06/25 12:42:06;;;;;;;1.95;1.27;;;;;;;30.67;28.03;100778.66;5027870;28;20145;-72
2022/06/25 12:44:34;;;;;;;2.55;1.40;;;;;;;30.63;28.54;100774.63;5026134;28;20049;-73
2022/06/25 12:47:04;;;;;;;2.10;1.30;;;;;;;30.62;28.26;100772.91;5028448;28;20045;-71
2022/06/25 12:49:43;;;;;;;4.50;1.50;;;;;;;30.63;28.17;100778.28;5030606;28;20051;-71
2022/06/25 12:52:10;;;;;;;1.88;1.25;;;;;;;30.56;28.25;100771.88;5012921;28;20045;-72
2022/06/25 12:54:48;;;;;;;2.22;1.38;;;;;;;30.60;28.20;100769.47;5031212;28;20136;-71
2022/06/25 12:57:25;;;;;;;2.40;1.52;;;;;;;30.59;28.46;100770.56;5014063;28;20057;-72
2022/06/25 12:59:53;;;;;;;2.90;1.48;;;;;;;30.54;28.22;100771.28;5031823;28;20529;-73
2022/06/25 13:02:29;;;;;;;2.22;1.27;;;;;;;30.52;27.85;100765.06;5014153;28;20053;-72
2022/06/25 13:04:56;;;;;;;2.90;1.10;;;;;;;30.49;27.95;100756.22;5031261;28;20617;-72